sensor_id;sensor_type;location;lat;lon;timestamp;P1;durP1;ratioP1;P2;durP2;ratioP2
22713;SDS011;11524;50.846;4.326;2023-04-03T00:00:33;5.63;;;2.90;;
22713;SDS011;11524;50.846;4.326;2023-04-03T00:02:58;4.97;;;2.97;;
22713;SDS011;11524;50.846;4.326;2023-04-03T00:05:26;7.93;;;3.28;;
22713;SDS011;11524;50.846;4.326;2023-04-03T00:07:52;5.22;;;3.03;;
22713;SDS011;11524;50.846;4.326;2023-04-03T00:10:18;4.32;;;2.92;;
22713;SDS011;11524;50.846;4.326;2023-04-03T00:12:44;5.10;;;3.10;;
22713;SDS011;11524;50.846;4.326;2023-04-03T00:15:10;5.80;;;3.13;;
22713;SDS011;11524;50.846;4.326;2023-04-03T00:17:35;4.90;;;2.92;;
22713;SDS011;11524;50.846;4.326;2023-04-03T00:20:02;4.93;;;3.10;;
22713;SDS011;11524;50.846;4.326;2023-04-03T00:22:31;4.38;;;3.13;;
22713;SDS011;11524;50.846;4.326;2023-04-03T00:24:57;4.43;;;3.10;;
22713;SDS011;11524;50.846;4.326;2023-04-03T00:27:24;4.57;;;2.95;;
22713;SDS011;11524;50.846;4.326;2023-04-03T00:29:50;5.05;;;2.80;;
22713;SDS011;11524;50.846;4.326;2023-04-03T00:32:15;3.70;;;2.58;;
22713;SDS011;11524;50.846;4.326;2023-04-03T00:34:43;5.32;;;2.92;;
22713;SDS011;11524;50.846;4.326;2023-04-03T00:37:12;5.45;;;3.25;;
22713;SDS011;11524;50.846;4.326;2023-04-03T00:39:58;4.60;;;2.72;;
22713;SDS011;11524;50.846;4.326;2023-04-03T00:42:24;3.70;;;2.65;;
22713;SDS011;11524;50.846;4.326;2023-04-03T00:47:54;3.63;;;2.70;;
22713;SDS011;11524;50.846;4.326;2023-04-03T00:50:20;4.50;;;2.85;;
22713;SDS011;11524;50.846;4.326;2023-04-03T00:52:47;4.78;;;2.95;;
22713;SDS011;11524;50.846;4.326;2023-04-03T00:55:15;4.30;;;2.83;;
22713;SDS011;11524;50.846;4.326;2023-04-03T00:57:41;5.05;;;2.80;;
22713;SDS011;11524;50.846;4.326;2023-04-03T01:00:11;4.05;;;2.90;;
22713;SDS011;11524;50.846;4.326;2023-04-03T01:02:47;3.50;;;2.50;;
22713;SDS011;11524;50.846;4.326;2023-04-03T01:05:17;4.72;;;3.13;;
22713;SDS011;11524;50.846;4.326;2023-04-03T01:07:47;5.57;;;2.63;;
22713;SDS011;11524;50.846;4.326;2023-04-03T01:10:17;3.95;;;2.92;;
22713;SDS011;11524;50.846;4.326;2023-04-03T01:12:45;5.55;;;2.85;;
22713;SDS011;11524;50.846;4.326;2023-04-03T01:15:21;3.58;;;2.45;;
22713;SDS011;11524;50.846;4.326;2023-04-03T01:17:50;4.25;;;2.88;;
22713;SDS011;11524;50.846;4.326;2023-04-03T01:25:39;5.38;;;2.75;;
22713;SDS011;11524;50.846;4.326;2023-04-03T01:28:11;4.70;;;2.78;;
22713;SDS011;11524;50.846;4.326;2023-04-03T01:30:47;14.82;;;3.33;;
22713;SDS011;11524;50.846;4.326;2023-04-03T01:35:51;4.70;;;3.00;;
22713;SDS011;11524;50.846;4.326;2023-04-03T01:38:16;3.70;;;2.60;;
22713;SDS011;11524;50.846;4.326;2023-04-03T01:40:43;3.92;;;2.88;;
22713;SDS011;11524;50.846;4.326;2023-04-03T01:43:12;4.78;;;3.05;;
22713;SDS011;11524;50.846;4.326;2023-04-03T01:45:58;3.75;;;2.50;;
22713;SDS011;11524;50.846;4.326;2023-04-03T01:48:34;6.28;;;2.70;;
22713;SDS011;11524;50.846;4.326;2023-04-03T01:51:14;4.28;;;2.78;;
22713;SDS011;11524;50.846;4.326;2023-04-03T01:53:41;3.95;;;3.20;;
22713;SDS011;11524;50.846;4.326;2023-04-03T01:56:06;3.58;;;2.80;;
22713;SDS011;11524;50.846;4.326;2023-04-03T01:58:32;4.68;;;2.65;;
22713;SDS011;11524;50.846;4.326;2023-04-03T02:00:58;5.15;;;2.85;;
22713;SDS011;11524;50.846;4.326;2023-04-03T02:03:24;3.90;;;2.53;;
22713;SDS011;11524;50.846;4.326;2023-04-03T02:05:50;4.70;;;3.00;;
22713;SDS011;11524;50.846;4.326;2023-04-03T02:08:16;4.38;;;2.75;;
22713;SDS011;11524;50.846;4.326;2023-04-03T02:10:46;3.72;;;2.53;;
22713;SDS011;11524;50.846;4.326;2023-04-03T02:13:13;4.80;;;3.00;;
22713;SDS011;11524;50.846;4.326;2023-04-03T02:15:39;4.20;;;2.40;;
22713;SDS011;11524;50.846;4.326;2023-04-03T02:18:05;4.07;;;2.55;;
22713;SDS011;11524;50.846;4.326;2023-04-03T02:20:31;4.70;;;2.58;;
22713;SDS011;11524;50.846;4.326;2023-04-03T02:22:58;3.83;;;2.67;;
22713;SDS011;11524;50.846;4.326;2023-04-03T02:25:25;4.82;;;3.05;;
22713;SDS011;11524;50.846;4.326;2023-04-03T02:27:51;4.88;;;2.42;;
22713;SDS011;11524;50.846;4.326;2023-04-03T02:30:17;3.42;;;2.42;;
22713;SDS011;11524;50.846;4.326;2023-04-03T02:32:43;4.47;;;2.83;;
22713;SDS011;11524;50.846;4.326;2023-04-03T02:35:09;3.97;;;2.50;;
22713;SDS011;11524;50.846;4.326;2023-04-03T02:37:39;3.80;;;2.75;;
22713;SDS011;11524;50.846;4.326;2023-04-03T02:40:32;5.00;;;2.08;;
22713;SDS011;11524;50.846;4.326;2023-04-03T02:43:02;3.78;;;2.65;;
22713;SDS011;11524;50.846;4.326;2023-04-03T02:45:34;3.78;;;3.10;;
22713;SDS011;11524;50.846;4.326;2023-04-03T02:47:59;3.75;;;2.53;;
22713;SDS011;11524;50.846;4.326;2023-04-03T02:50:26;3.33;;;2.33;;
22713;SDS011;11524;50.846;4.326;2023-04-03T02:52:55;3.28;;;2.38;;
22713;SDS011;11524;50.846;4.326;2023-04-03T02:55:21;3.22;;;2.50;;
22713;SDS011;11524;50.846;4.326;2023-04-03T02:57:48;4.20;;;2.42;;
22713;SDS011;11524;50.846;4.326;2023-04-03T03:00:16;5.97;;;2.88;;
22713;SDS011;11524;50.846;4.326;2023-04-03T03:02:49;3.40;;;2.40;;
22713;SDS011;11524;50.846;4.326;2023-04-03T03:05:15;3.28;;;2.50;;
22713;SDS011;11524;50.846;4.326;2023-04-03T03:07:42;3.58;;;2.33;;
22713;SDS011;11524;50.846;4.326;2023-04-03T03:10:08;3.63;;;2.78;;
22713;SDS011;11524;50.846;4.326;2023-04-03T03:12:34;3.88;;;2.58;;
22713;SDS011;11524;50.846;4.326;2023-04-03T03:15:00;4.07;;;2.92;;
22713;SDS011;11524;50.846;4.326;2023-04-03T03:17:26;4.07;;;2.38;;
22713;SDS011;11524;50.846;4.326;2023-04-03T03:19:51;5.97;;;3.00;;
22713;SDS011;11524;50.846;4.326;2023-04-03T03:22:17;3.85;;;2.55;;
22713;SDS011;11524;50.846;4.326;2023-04-03T03:24:42;3.38;;;2.58;;
22713;SDS011;11524;50.846;4.326;2023-04-03T03:27:08;7.53;;;2.80;;
22713;SDS011;11524;50.846;4.326;2023-04-03T03:29:35;3.22;;;2.28;;
22713;SDS011;11524;50.846;4.326;2023-04-03T03:32:00;4.07;;;2.30;;
22713;SDS011;11524;50.846;4.326;2023-04-03T03:34:26;4.22;;;2.50;;
22713;SDS011;11524;50.846;4.326;2023-04-03T03:36:55;4.05;;;2.47;;
22713;SDS011;11524;50.846;4.326;2023-04-03T03:39:22;5.13;;;2.63;;
22713;SDS011;11524;50.846;4.326;2023-04-03T03:42:03;3.58;;;2.67;;
22713;SDS011;11524;50.846;4.326;2023-04-03T03:44:32;4.00;;;2.30;;
22713;SDS011;11524;50.846;4.326;2023-04-03T03:46:58;2.83;;;2.60;;
22713;SDS011;11524;50.846;4.326;2023-04-03T03:49:23;3.65;;;2.58;;
22713;SDS011;11524;50.846;4.326;2023-04-03T03:51:49;2.97;;;2.30;;
22713;SDS011;11524;50.846;4.326;2023-04-03T03:54:15;3.08;;;2.50;;
22713;SDS011;11524;50.846;4.326;2023-04-03T03:56:41;3.97;;;2.45;;
22713;SDS011;11524;50.846;4.326;2023-04-03T03:59:07;4.30;;;2.83;;
22713;SDS011;11524;50.846;4.326;2023-04-03T04:01:33;5.60;;;2.55;;
22713;SDS011;11524;50.846;4.326;2023-04-03T04:03:58;3.28;;;2.35;;
22713;SDS011;11524;50.846;4.326;2023-04-03T04:06:24;4.68;;;2.80;;
22713;SDS011;11524;50.846;4.326;2023-04-03T04:08:50;4.93;;;2.80;;
22713;SDS011;11524;50.846;4.326;2023-04-03T04:11:17;4.15;;;2.42;;
22713;SDS011;11524;50.846;4.326;2023-04-03T04:13:43;3.67;;;2.60;;
22713;SDS011;11524;50.846;4.326;2023-04-03T04:16:09;3.30;;;2.60;;
22713;SDS011;11524;50.846;4.326;2023-04-03T04:18:35;3.00;;;2.10;;
22713;SDS011;11524;50.846;4.326;2023-04-03T04:21:00;4.88;;;2.55;;
22713;SDS011;11524;50.846;4.326;2023-04-03T04:23:26;4.30;;;2.70;;
22713;SDS011;11524;50.846;4.326;2023-04-03T04:25:52;3.53;;;2.50;;
22713;SDS011;11524;50.846;4.326;2023-04-03T04:28:17;3.70;;;2.63;;
22713;SDS011;11524;50.846;4.326;2023-04-03T04:30:43;5.25;;;2.55;;
22713;SDS011;11524;50.846;4.326;2023-04-03T04:33:09;3.95;;;2.40;;
22713;SDS011;11524;50.846;4.326;2023-04-03T04:35:35;5.53;;;2.75;;
22713;SDS011;11524;50.846;4.326;2023-04-03T04:38:01;4.45;;;2.47;;
22713;SDS011;11524;50.846;4.326;2023-04-03T04:40:27;4.35;;;2.53;;
22713;SDS011;11524;50.846;4.326;2023-04-03T04:42:53;6.95;;;2.22;;
22713;SDS011;11524;50.846;4.326;2023-04-03T04:45:19;2.85;;;2.13;;
22713;SDS011;11524;50.846;4.326;2023-04-03T04:47:45;3.00;;;2.28;;
22713;SDS011;11524;50.846;4.326;2023-04-03T04:50:11;4.22;;;2.33;;
22713;SDS011;11524;50.846;4.326;2023-04-03T04:52:36;4.95;;;2.65;;
22713;SDS011;11524;50.846;4.326;2023-04-03T04:55:03;4.90;;;2.45;;
22713;SDS011;11524;50.846;4.326;2023-04-03T04:57:29;2.90;;;2.03;;
22713;SDS011;11524;50.846;4.326;2023-04-03T04:59:55;3.83;;;2.17;;
22713;SDS011;11524;50.846;4.326;2023-04-03T05:02:20;3.85;;;2.30;;
22713;SDS011;11524;50.846;4.326;2023-04-03T05:04:46;4.47;;;2.50;;
22713;SDS011;11524;50.846;4.326;2023-04-03T05:07:11;3.70;;;2.33;;
22713;SDS011;11524;50.846;4.326;2023-04-03T05:09:37;7.10;;;2.20;;
22713;SDS011;11524;50.846;4.326;2023-04-03T05:12:03;2.65;;;2.05;;
22713;SDS011;11524;50.846;4.326;2023-04-03T05:14:29;3.40;;;2.33;;
22713;SDS011;11524;50.846;4.326;2023-04-03T05:16:55;2.30;;;2.00;;
22713;SDS011;11524;50.846;4.326;2023-04-03T05:19:21;4.65;;;2.40;;
22713;SDS011;11524;50.846;4.326;2023-04-03T05:21:47;4.07;;;2.05;;
22713;SDS011;11524;50.846;4.326;2023-04-03T05:24:13;4.97;;;2.33;;
22713;SDS011;11524;50.846;4.326;2023-04-03T05:26:40;6.57;;;2.50;;
22713;SDS011;11524;50.846;4.326;2023-04-03T05:29:05;9.63;;;2.90;;
22713;SDS011;11524;50.846;4.326;2023-04-03T05:31:31;11.43;;;2.88;;
22713;SDS011;11524;50.846;4.326;2023-04-03T05:33:57;4.90;;;2.58;;
22713;SDS011;11524;50.846;4.326;2023-04-03T05:36:22;4.75;;;2.35;;
22713;SDS011;11524;50.846;4.326;2023-04-03T05:38:49;6.53;;;2.17;;
22713;SDS011;11524;50.846;4.326;2023-04-03T05:41:15;4.28;;;2.55;;
22713;SDS011;11524;50.846;4.326;2023-04-03T05:43:40;7.15;;;2.63;;
22713;SDS011;11524;50.846;4.326;2023-04-03T05:46:13;3.58;;;2.70;;
22713;SDS011;11524;50.846;4.326;2023-04-03T05:48:40;3.20;;;2.60;;
22713;SDS011;11524;50.846;4.326;2023-04-03T05:51:07;4.60;;;2.95;;
22713;SDS011;11524;50.846;4.326;2023-04-03T05:53:38;3.08;;;2.63;;
22713;SDS011;11524;50.846;4.326;2023-04-03T05:56:04;4.25;;;2.65;;
22713;SDS011;11524;50.846;4.326;2023-04-03T05:58:29;4.63;;;2.70;;
22713;SDS011;11524;50.846;4.326;2023-04-03T06:00:55;5.20;;;3.35;;
22713;SDS011;11524;50.846;4.326;2023-04-03T06:03:22;5.65;;;2.70;;
22713;SDS011;11524;50.846;4.326;2023-04-03T06:05:47;14.57;;;2.83;;
22713;SDS011;11524;50.846;4.326;2023-04-03T06:08:13;11.32;;;3.03;;
22713;SDS011;11524;50.846;4.326;2023-04-03T06:10:39;9.93;;;2.42;;
22713;SDS011;11524;50.846;4.326;2023-04-03T06:13:05;8.07;;;3.10;;
22713;SDS011;11524;50.846;4.326;2023-04-03T06:15:31;5.07;;;2.88;;
22713;SDS011;11524;50.846;4.326;2023-04-03T06:17:56;10.00;;;3.03;;
22713;SDS011;11524;50.846;4.326;2023-04-03T06:20:22;7.28;;;2.90;;
22713;SDS011;11524;50.846;4.326;2023-04-03T06:22:49;7.10;;;2.63;;
22713;SDS011;11524;50.846;4.326;2023-04-03T06:25:15;8.27;;;3.15;;
22713;SDS011;11524;50.846;4.326;2023-04-03T06:27:43;17.85;;;3.80;;
22713;SDS011;11524;50.846;4.326;2023-04-03T06:30:09;8.73;;;3.15;;
22713;SDS011;11524;50.846;4.326;2023-04-03T06:32:36;5.50;;;2.53;;
22713;SDS011;11524;50.846;4.326;2023-04-03T06:35:02;4.68;;;2.85;;
22713;SDS011;11524;50.846;4.326;2023-04-03T06:37:30;10.30;;;3.17;;
22713;SDS011;11524;50.846;4.326;2023-04-03T06:39:57;6.10;;;3.13;;
22713;SDS011;11524;50.846;4.326;2023-04-03T06:42:23;5.07;;;2.78;;
22713;SDS011;11524;50.846;4.326;2023-04-03T06:44:49;4.95;;;2.75;;
22713;SDS011;11524;50.846;4.326;2023-04-03T06:47:14;8.35;;;3.47;;
22713;SDS011;11524;50.846;4.326;2023-04-03T06:49:42;8.45;;;2.80;;
22713;SDS011;11524;50.846;4.326;2023-04-03T06:52:08;5.32;;;2.58;;
22713;SDS011;11524;50.846;4.326;2023-04-03T06:54:34;5.30;;;2.53;;
22713;SDS011;11524;50.846;4.326;2023-04-03T06:57:03;5.80;;;3.30;;
22713;SDS011;11524;50.846;4.326;2023-04-03T06:59:29;5.68;;;3.42;;
22713;SDS011;11524;50.846;4.326;2023-04-03T07:01:55;4.97;;;2.80;;
22713;SDS011;11524;50.846;4.326;2023-04-03T07:04:20;6.38;;;2.67;;
22713;SDS011;11524;50.846;4.326;2023-04-03T07:06:46;3.88;;;2.58;;
22713;SDS011;11524;50.846;4.326;2023-04-03T07:09:12;4.15;;;2.50;;
22713;SDS011;11524;50.846;4.326;2023-04-03T07:11:39;5.07;;;3.00;;
22713;SDS011;11524;50.846;4.326;2023-04-03T07:14:05;4.53;;;3.13;;
22713;SDS011;11524;50.846;4.326;2023-04-03T07:16:33;5.28;;;2.95;;
22713;SDS011;11524;50.846;4.326;2023-04-03T07:19:00;4.45;;;2.60;;
22713;SDS011;11524;50.846;4.326;2023-04-03T07:21:26;5.07;;;2.53;;
22713;SDS011;11524;50.846;4.326;2023-04-03T07:23:53;3.15;;;2.22;;
22713;SDS011;11524;50.846;4.326;2023-04-03T07:26:19;3.78;;;2.45;;
22713;SDS011;11524;50.846;4.326;2023-04-03T07:28:46;4.55;;;2.55;;
22713;SDS011;11524;50.846;4.326;2023-04-03T07:31:13;3.90;;;2.10;;
22713;SDS011;11524;50.846;4.326;2023-04-03T07:33:41;4.88;;;2.50;;
22713;SDS011;11524;50.846;4.326;2023-04-03T07:36:09;5.50;;;2.17;;
22713;SDS011;11524;50.846;4.326;2023-04-03T07:38:35;2.83;;;2.10;;
22713;SDS011;11524;50.846;4.326;2023-04-03T07:41:01;2.00;;;1.77;;
22713;SDS011;11524;50.846;4.326;2023-04-03T07:43:28;2.47;;;1.95;;
22713;SDS011;11524;50.846;4.326;2023-04-03T07:45:54;3.33;;;1.88;;
22713;SDS011;11524;50.846;4.326;2023-04-03T07:48:20;3.85;;;2.10;;
22713;SDS011;11524;50.846;4.326;2023-04-03T07:50:47;5.05;;;2.47;;
22713;SDS011;11524;50.846;4.326;2023-04-03T07:53:13;2.78;;;1.83;;
22713;SDS011;11524;50.846;4.326;2023-04-03T07:55:39;3.15;;;1.85;;
22713;SDS011;11524;50.846;4.326;2023-04-03T07:58:12;3.92;;;1.95;;
22713;SDS011;11524;50.846;4.326;2023-04-03T08:00:39;4.82;;;2.60;;
22713;SDS011;11524;50.846;4.326;2023-04-03T08:03:13;3.55;;;2.10;;
22713;SDS011;11524;50.846;4.326;2023-04-03T08:05:45;3.17;;;1.88;;
22713;SDS011;11524;50.846;4.326;2023-04-03T08:08:12;3.05;;;2.00;;
22713;SDS011;11524;50.846;4.326;2023-04-03T08:10:40;3.22;;;2.08;;
22713;SDS011;11524;50.846;4.326;2023-04-03T08:13:06;4.07;;;2.00;;
22713;SDS011;11524;50.846;4.326;2023-04-03T08:15:32;3.13;;;1.85;;
22713;SDS011;11524;50.846;4.326;2023-04-03T08:17:59;4.38;;;2.00;;
22713;SDS011;11524;50.846;4.326;2023-04-03T08:20:25;3.25;;;2.10;;
22713;SDS011;11524;50.846;4.326;2023-04-03T08:22:51;3.13;;;2.08;;
22713;SDS011;11524;50.846;4.326;2023-04-03T08:25:17;3.33;;;1.90;;
22713;SDS011;11524;50.846;4.326;2023-04-03T08:27:43;3.35;;;2.13;;
22713;SDS011;11524;50.846;4.326;2023-04-03T08:30:09;3.17;;;1.92;;
22713;SDS011;11524;50.846;4.326;2023-04-03T08:32:35;3.05;;;1.95;;
22713;SDS011;11524;50.846;4.326;2023-04-03T08:35:02;3.35;;;1.90;;
22713;SDS011;11524;50.846;4.326;2023-04-03T08:37:30;3.28;;;2.05;;
22713;SDS011;11524;50.846;4.326;2023-04-03T08:39:59;2.88;;;2.00;;
22713;SDS011;11524;50.846;4.326;2023-04-03T08:48:11;3.15;;;2.00;;
22713;SDS011;11524;50.846;4.326;2023-04-03T08:51:15;2.53;;;1.85;;
22713;SDS011;11524;50.846;4.326;2023-04-03T08:54:04;2.70;;;2.10;;
22713;SDS011;11524;50.846;4.326;2023-04-03T08:56:33;3.08;;;2.17;;
22713;SDS011;11524;50.846;4.326;2023-04-03T08:59:00;4.00;;;2.53;;
22713;SDS011;11524;50.846;4.326;2023-04-03T09:01:36;2.97;;;2.17;;
22713;SDS011;11524;50.846;4.326;2023-04-03T09:04:05;3.03;;;1.95;;
22713;SDS011;11524;50.846;4.326;2023-04-03T09:06:36;4.15;;;2.30;;
22713;SDS011;11524;50.846;4.326;2023-04-03T09:09:23;4.57;;;2.38;;
22713;SDS011;11524;50.846;4.326;2023-04-03T09:14:30;3.67;;;2.05;;
22713;SDS011;11524;50.846;4.326;2023-04-03T09:17:03;3.72;;;2.00;;
22713;SDS011;11524;50.846;4.326;2023-04-03T09:22:27;2.08;;;1.58;;
22713;SDS011;11524;50.846;4.326;2023-04-03T09:27:40;2.15;;;1.75;;
22713;SDS011;11524;50.846;4.326;2023-04-03T09:30:06;2.78;;;2.00;;
22713;SDS011;11524;50.846;4.326;2023-04-03T09:32:43;4.53;;;1.70;;
22713;SDS011;11524;50.846;4.326;2023-04-03T09:37:50;3.30;;;1.67;;
22713;SDS011;11524;50.846;4.326;2023-04-03T09:43:18;3.08;;;1.95;;
22713;SDS011;11524;50.846;4.326;2023-04-03T09:45:47;2.70;;;1.77;;
22713;SDS011;11524;50.846;4.326;2023-04-03T09:50:58;4.35;;;2.10;;
22713;SDS011;11524;50.846;4.326;2023-04-03T09:53:35;3.08;;;2.00;;
22713;SDS011;11524;50.846;4.326;2023-04-03T10:01:42;2.20;;;1.65;;
22713;SDS011;11524;50.846;4.326;2023-04-03T10:04:24;3.38;;;1.83;;
22713;SDS011;11524;50.846;4.326;2023-04-03T10:06:59;4.55;;;1.90;;
22713;SDS011;11524;50.846;4.326;2023-04-03T10:09:33;3.40;;;1.88;;
22713;SDS011;11524;50.846;4.326;2023-04-03T10:12:05;2.67;;;1.77;;
22713;SDS011;11524;50.846;4.326;2023-04-03T10:14:34;4.47;;;2.17;;
22713;SDS011;11524;50.846;4.326;2023-04-03T10:17:17;3.30;;;1.83;;
22713;SDS011;11524;50.846;4.326;2023-04-03T10:23:02;8.95;;;4.30;;
22713;SDS011;11524;50.846;4.326;2023-04-03T10:28:03;22.02;;;9.45;;
22713;SDS011;11524;50.846;4.326;2023-04-03T10:39:02;21.52;;;10.05;;
22713;SDS011;11524;50.846;4.326;2023-04-03T10:41:36;23.23;;;12.18;;
22713;SDS011;11524;50.846;4.326;2023-04-03T10:47:10;19.58;;;8.55;;
22713;SDS011;11524;50.846;4.326;2023-04-03T10:49:48;26.95;;;13.27;;
22713;SDS011;11524;50.846;4.326;2023-04-03T10:53:21;20.38;;;9.93;;
22713;SDS011;11524;50.846;4.326;2023-04-03T10:57:47;23.40;;;11.20;;
22713;SDS011;11524;50.846;4.326;2023-04-03T11:00:18;24.98;;;11.25;;
22713;SDS011;11524;50.846;4.326;2023-04-03T11:03:01;25.05;;;13.13;;
22713;SDS011;11524;50.846;4.326;2023-04-03T11:05:36;21.85;;;10.88;;
22713;SDS011;11524;50.846;4.326;2023-04-03T11:08:26;20.15;;;10.73;;
22713;SDS011;11524;50.846;4.326;2023-04-03T11:11:04;21.05;;;10.73;;
22713;SDS011;11524;50.846;4.326;2023-04-03T11:13:35;20.08;;;10.05;;
22713;SDS011;11524;50.846;4.326;2023-04-03T11:16:09;20.42;;;11.85;;
22713;SDS011;11524;50.846;4.326;2023-04-03T11:21:47;23.98;;;11.70;;
22713;SDS011;11524;50.846;4.326;2023-04-03T11:24:51;18.75;;;9.23;;
22713;SDS011;11524;50.846;4.326;2023-04-03T11:27:30;22.98;;;13.20;;
22713;SDS011;11524;50.846;4.326;2023-04-03T11:30:06;22.15;;;10.82;;
22713;SDS011;11524;50.846;4.326;2023-04-03T11:35:30;25.23;;;13.43;;
22713;SDS011;11524;50.846;4.326;2023-04-03T11:37:57;17.80;;;10.95;;
22713;SDS011;11524;50.846;4.326;2023-04-03T11:40:26;19.38;;;10.05;;
22713;SDS011;11524;50.846;4.326;2023-04-03T11:47:51;21.00;;;11.50;;
22713;SDS011;11524;50.846;4.326;2023-04-03T12:14:01;18.15;;;9.18;;
22713;SDS011;11524;50.846;4.326;2023-04-03T12:29:25;18.10;;;8.43;;
22713;SDS011;11524;50.846;4.326;2023-04-03T12:43:17;19.75;;;10.32;;
22713;SDS011;11524;50.846;4.326;2023-04-03T12:48:38;23.35;;;10.60;;
22713;SDS011;11524;50.846;4.326;2023-04-03T12:51:28;24.38;;;11.80;;
22713;SDS011;11524;50.846;4.326;2023-04-03T12:54:30;26.00;;;11.20;;
22713;SDS011;11524;50.846;4.326;2023-04-03T12:57:10;19.52;;;9.38;;
22713;SDS011;11524;50.846;4.326;2023-04-03T12:59:37;23.85;;;10.63;;
22713;SDS011;11524;50.846;4.326;2023-04-03T13:02:07;19.63;;;9.95;;
22713;SDS011;11524;50.846;4.326;2023-04-03T13:04:42;19.73;;;10.27;;
22713;SDS011;11524;50.846;4.326;2023-04-03T13:07:18;18.10;;;9.68;;
22713;SDS011;11524;50.846;4.326;2023-04-03T13:09:54;19.63;;;9.98;;
22713;SDS011;11524;50.846;4.326;2023-04-03T13:12:21;21.35;;;9.95;;
22713;SDS011;11524;50.846;4.326;2023-04-03T13:14:57;17.10;;;8.35;;
22713;SDS011;11524;50.846;4.326;2023-04-03T13:17:25;15.30;;;7.85;;
22713;SDS011;11524;50.846;4.326;2023-04-03T13:19:52;12.13;;;6.53;;
22713;SDS011;11524;50.846;4.326;2023-04-03T13:22:24;21.38;;;9.25;;
22713;SDS011;11524;50.846;4.326;2023-04-03T13:24:59;17.17;;;8.63;;
22713;SDS011;11524;50.846;4.326;2023-04-03T13:27:30;16.67;;;8.10;;
22713;SDS011;11524;50.846;4.326;2023-04-03T13:29:57;15.48;;;7.18;;
22713;SDS011;11524;50.846;4.326;2023-04-03T13:32:25;19.63;;;8.77;;
22713;SDS011;11524;50.846;4.326;2023-04-03T13:34:53;17.30;;;7.68;;
22713;SDS011;11524;50.846;4.326;2023-04-03T13:37:23;16.08;;;8.52;;
22713;SDS011;11524;50.846;4.326;2023-04-03T13:40:03;14.35;;;7.72;;
22713;SDS011;11524;50.846;4.326;2023-04-03T13:42:40;12.48;;;6.60;;
22713;SDS011;11524;50.846;4.326;2023-04-03T13:47:48;16.42;;;6.93;;
22713;SDS011;11524;50.846;4.326;2023-04-03T13:50:24;12.18;;;6.70;;
22713;SDS011;11524;50.846;4.326;2023-04-03T13:53:02;10.65;;;5.90;;
22713;SDS011;11524;50.846;4.326;2023-04-03T13:55:37;15.05;;;6.78;;
22713;SDS011;11524;50.846;4.326;2023-04-03T13:58:22;12.75;;;5.88;;
22713;SDS011;11524;50.846;4.326;2023-04-03T14:00:51;10.43;;;6.65;;
22713;SDS011;11524;50.846;4.326;2023-04-03T14:03:22;11.27;;;5.80;;
22713;SDS011;11524;50.846;4.326;2023-04-03T14:05:56;11.82;;;5.85;;
22713;SDS011;11524;50.846;4.326;2023-04-03T14:08:22;9.60;;;5.18;;
22713;SDS011;11524;50.846;4.326;2023-04-03T14:10:48;10.93;;;6.07;;
22713;SDS011;11524;50.846;4.326;2023-04-03T14:13:16;13.15;;;5.50;;
22713;SDS011;11524;50.846;4.326;2023-04-03T14:15:44;10.60;;;5.88;;
22713;SDS011;11524;50.846;4.326;2023-04-03T14:18:14;12.27;;;5.85;;
22713;SDS011;11524;50.846;4.326;2023-04-03T14:20:41;11.38;;;5.63;;
22713;SDS011;11524;50.846;4.326;2023-04-03T14:23:07;8.88;;;5.15;;
22713;SDS011;11524;50.846;4.326;2023-04-03T14:25:33;9.05;;;5.10;;
22713;SDS011;11524;50.846;4.326;2023-04-03T14:27:59;9.05;;;5.00;;
22713;SDS011;11524;50.846;4.326;2023-04-03T14:30:32;9.23;;;4.97;;
22713;SDS011;11524;50.846;4.326;2023-04-03T14:32:59;10.35;;;4.82;;
22713;SDS011;11524;50.846;4.326;2023-04-03T14:35:26;7.25;;;4.28;;
22713;SDS011;11524;50.846;4.326;2023-04-03T14:37:52;9.18;;;5.28;;
22713;SDS011;11524;50.846;4.326;2023-04-03T14:40:22;9.52;;;4.25;;
22713;SDS011;11524;50.846;4.326;2023-04-03T14:42:52;8.40;;;4.30;;
22713;SDS011;11524;50.846;4.326;2023-04-03T14:45:20;8.65;;;4.50;;
22713;SDS011;11524;50.846;4.326;2023-04-03T14:50:15;7.18;;;4.13;;
22713;SDS011;11524;50.846;4.326;2023-04-03T14:52:46;7.10;;;3.53;;
22713;SDS011;11524;50.846;4.326;2023-04-03T14:55:14;8.25;;;4.40;;
22713;SDS011;11524;50.846;4.326;2023-04-03T14:57:41;9.93;;;4.15;;
22713;SDS011;11524;50.846;4.326;2023-04-03T15:00:11;6.47;;;3.38;;
22713;SDS011;11524;50.846;4.326;2023-04-03T15:02:41;6.45;;;3.55;;
22713;SDS011;11524;50.846;4.326;2023-04-03T15:05:08;8.82;;;3.65;;
22713;SDS011;11524;50.846;4.326;2023-04-03T15:07:43;7.35;;;3.65;;
22713;SDS011;11524;50.846;4.326;2023-04-03T15:10:20;4.18;;;2.75;;
22713;SDS011;11524;50.846;4.326;2023-04-03T15:12:48;5.07;;;3.08;;
22713;SDS011;11524;50.846;4.326;2023-04-03T15:15:15;8.20;;;4.20;;
22713;SDS011;11524;50.846;4.326;2023-04-03T15:17:42;6.60;;;4.03;;
22713;SDS011;11524;50.846;4.326;2023-04-03T15:20:16;8.77;;;4.05;;
22713;SDS011;11524;50.846;4.326;2023-04-03T15:22:43;12.02;;;4.30;;
22713;SDS011;11524;50.846;4.326;2023-04-03T15:25:09;8.38;;;3.95;;
22713;SDS011;11524;50.846;4.326;2023-04-03T15:27:35;9.63;;;3.95;;
22713;SDS011;11524;50.846;4.326;2023-04-03T15:30:02;7.88;;;4.00;;
22713;SDS011;11524;50.846;4.326;2023-04-03T15:32:31;5.60;;;2.95;;
22713;SDS011;11524;50.846;4.326;2023-04-03T15:34:56;6.25;;;3.20;;
22713;SDS011;11524;50.846;4.326;2023-04-03T15:37:22;6.63;;;3.10;;
22713;SDS011;11524;50.846;4.326;2023-04-03T15:39:48;7.60;;;3.22;;
22713;SDS011;11524;50.846;4.326;2023-04-03T15:42:13;8.52;;;3.63;;
22713;SDS011;11524;50.846;4.326;2023-04-03T15:44:39;10.60;;;3.40;;
22713;SDS011;11524;50.846;4.326;2023-04-03T15:47:11;10.82;;;3.40;;
22713;SDS011;11524;50.846;4.326;2023-04-03T15:49:39;9.07;;;3.08;;
22713;SDS011;11524;50.846;4.326;2023-04-03T15:52:05;8.23;;;3.08;;
22713;SDS011;11524;50.846;4.326;2023-04-03T15:54:31;8.38;;;2.83;;
22713;SDS011;11524;50.846;4.326;2023-04-03T15:56:58;5.47;;;2.75;;
22713;SDS011;11524;50.846;4.326;2023-04-03T15:59:23;4.85;;;1.90;;
22713;SDS011;11524;50.846;4.326;2023-04-03T16:01:49;3.55;;;2.00;;
22713;SDS011;11524;50.846;4.326;2023-04-03T16:04:16;20.80;;;12.15;;
22713;SDS011;11524;50.846;4.326;2023-04-03T16:06:42;49.10;;;33.20;;
22713;SDS011;11524;50.846;4.326;2023-04-03T16:09:08;46.25;;;30.63;;
22713;SDS011;11524;50.846;4.326;2023-04-03T16:11:35;66.70;;;40.25;;
22713;SDS011;11524;50.846;4.326;2023-04-03T16:14:02;64.80;;;42.38;;
22713;SDS011;11524;50.846;4.326;2023-04-03T16:16:27;54.65;;;34.38;;
22713;SDS011;11524;50.846;4.326;2023-04-03T16:18:54;36.17;;;25.40;;
22713;SDS011;11524;50.846;4.326;2023-04-03T16:21:20;42.42;;;26.02;;
22713;SDS011;11524;50.846;4.326;2023-04-03T16:23:47;40.90;;;25.83;;
22713;SDS011;11524;50.846;4.326;2023-04-03T16:26:13;40.60;;;24.80;;
22713;SDS011;11524;50.846;4.326;2023-04-03T16:28:39;38.55;;;25.55;;
22713;SDS011;11524;50.846;4.326;2023-04-03T16:31:05;38.78;;;23.95;;
22713;SDS011;11524;50.846;4.326;2023-04-03T16:33:32;39.47;;;21.65;;
22713;SDS011;11524;50.846;4.326;2023-04-03T16:35:57;32.67;;;21.30;;
22713;SDS011;11524;50.846;4.326;2023-04-03T16:38:24;40.92;;;21.80;;
22713;SDS011;11524;50.846;4.326;2023-04-03T16:40:50;36.47;;;21.23;;
22713;SDS011;11524;50.846;4.326;2023-04-03T16:43:17;32.15;;;19.67;;
22713;SDS011;11524;50.846;4.326;2023-04-03T16:45:43;36.45;;;19.65;;
22713;SDS011;11524;50.846;4.326;2023-04-03T16:48:08;32.08;;;19.85;;
22713;SDS011;11524;50.846;4.326;2023-04-03T16:50:35;30.27;;;17.67;;
22713;SDS011;11524;50.846;4.326;2023-04-03T16:53:00;24.60;;;14.43;;
22713;SDS011;11524;50.846;4.326;2023-04-03T16:55:27;28.42;;;17.75;;
22713;SDS011;11524;50.846;4.326;2023-04-03T16:57:53;21.02;;;15.00;;